This is the latest recevied weather packets stored in our database for station/object W8KJR. If no packets are shown the sender has not sent any weather packets the latest 10 day(s).
| Time | Temp. | Humidity | Pressure | Rain* | Wind** | Luminosity | Snow |
|---|---|---|---|---|---|---|---|
| 1777770758 | 5.56° C | 67% | 1016.4 hPa | 0 mm | - | - | - |
| 1777769854 | 5.56° C | 64% | 1016.3 hPa | 0 mm | - | - | - |
| 1777768951 | 6.11° C | 63% | 1016.4 hPa | 0 mm | - | - | - |
| 1777768048 | 6.67° C | 59% | 1016.4 hPa | 0 mm | - | - | - |
| 1777767143 | 7.78° C | 54% | 1016.1 hPa | 0 mm | - | - | - |
| 1777766241 | 7.78° C | 50% | 1016.2 hPa | 0 mm | - | - | - |
| 1777765338 | 8.33° C | 50% | 1016.1 hPa | 0 mm | - | - | - |
| 1777764438 | 8.33° C | 50% | 1015.9 hPa | 0 mm | - | - | - |
| 1777763536 | 8.89° C | 48% | 1016.2 hPa | 0 mm | - | - | - |
| 1777762634 | 8.89° C | 46% | 1016.2 hPa | 0 mm | - | - | - |
| 1777761730 | 8.89° C | 50% | 1016.3 hPa | 0 mm | - | - | - |
| 1777760829 | 8.33° C | 51% | 1016.3 hPa | 0 mm | - | - | - |
| 1777759925 | 8.89° C | 47% | 1016.2 hPa | 0 mm | - | - | - |
| 1777759020 | 8.89° C | 48% | 1016.3 hPa | 0 mm | - | - | - |
| 1777758118 | 8.33° C | 51% | 1016.3 hPa | 0 mm | - | - | - |
| 1777757216 | 8.89° C | 48% | 1016.1 hPa | 0 mm | - | - | - |
| 1777756313 | 9.44° C | 51% | 1016.1 hPa | 0 mm | - | - | - |
| 1777755410 | 8.89° C | 52% | 1016.1 hPa | 0 mm | - | - | - |
| 1777754507 | 9.44° C | 50% | 1016.3 hPa | 0 mm | - | - | - |
| 1777753602 | 9.44° C | 51% | 1016.3 hPa | 0 mm | - | - | - |
| 1777752700 | 9.44° C | 52% | 1016.3 hPa | 0 mm | - | - | - |
| 1777751797 | 8.89° C | 50% | 1016.5 hPa | 0 mm | - | - | - |
| 1777750892 | 8.89° C | 50% | 1016.7 hPa | 0 mm | - | - | - |
| 1777749993 | 9.44° C | 48% | 1016.9 hPa | 0 mm | - | - | - |
| 1777749091 | 9.44° C | 49% | 1016.7 hPa | 0 mm | - | - | - |
* Rain latest hour (hover to see other rain measurements)
** Current wind speed in m/s (hover to see current wind gust speed)